One Hundred Fifty Mile House, Canada
Current Conditions -  °F | °C
As of 4:00 PM on Saturday 25 Oct 2014 (Local Time) from CYWL Reporting Station
Haze Haze  
Wind Chill: 30°   Ceiling: 3000
Heat Index: 34°   Visibility: 2.5mi
Dew Point: 32°   Wind: 5mph
Humidity: 93%   Direction: 300°WNW
Pressure: 29.39"   Gusts: NA
Location:  52.12°N, 121.93°W
Report Text: CYWL 252300Z 30004KT 2 1/2SM BR OVC030 01/00 A2939 RMK SC8 SLP977
Loading
Personal Weather Stations






























Interactive Weather Map
Tropical Storm Tracking
New forecast layout! Learn more

10-Day Weather Forecast

Advertisements
Track Severe Weather on mobile